Time;durP1;ratioP1;P1;durP2;ratioP2;P2;SDS_P1;SDS_P2;PMS_P1;PMS_P2;Temp;Humidity;BMP_temperature;BMP_pressure;BME280_temperature;BME280_humidity;BME280_pressure;Samples;Min_cycle;Max_cycle;Signal;HPM_P1;HPM_P2
2021/11/05 00:00:16;;;;;;;;;;;;;;;;;;1010100;29;1609;-21
2021/11/05 00:00:47;;;;;;;;;;;;;;;;;;1010339;29;1052;-22
2021/11/05 00:01:17;;;;;;;;;;;;;;;;;;1009602;29;1376;-21
2021/11/05 00:01:48;;;;;;;;;;;;;;;;;;1013372;29;1270;-22
2021/11/05 00:02:21;;;;;;;;;;;;;;;;;;1013434;29;1038;-21
2021/11/05 00:02:54;;;;;;;;;;;;;;;;;;1012965;29;1548;-21
2021/11/05 00:03:25;;;;;;;;;;;;;;;;;;1008704;29;971;-21
2021/11/05 00:03:55;;;;;;;;;;;;;;;;;;1005846;29;1057;-20
2021/11/05 00:04:27;;;;;;;;;;;;;;;;;;1005500;29;1044;-21
2021/11/05 00:04:58;;;;;;;;;;;;;;;;;;1005987;29;876;-21
2021/11/05 00:05:29;;;;;;;;;;;;;;;;;;1009236;29;1430;-22
2021/11/05 00:06:02;;;;;;;;;;;;;;;;;;1009321;29;1235;-22
2021/11/05 00:06:33;;;;;;;;;;;;;;;;;;1010869;29;1132;-20
2021/11/05 00:07:04;;;;;;;;;;;;;;;;;;1013127;29;1631;-22
2021/11/05 00:07:35;;;;;;;;;;;;;;;;;;1013298;29;931;-21
2021/11/05 00:08:08;;;;;;;;;;;;;;;;;;1013089;29;1448;-22
2021/11/05 00:08:39;;;;;;;;;;;;;;;;;;1013755;29;1183;-21
2021/11/05 00:09:09;;;;;;;;;;;;;;;;;;1017634;29;1022;-21
2021/11/05 00:09:40;;;;;;;;;;;;;;;;;;1017436;29;1171;-21
2021/11/05 00:10:13;;;;;;;;;;;;;;;;;;1014303;29;972;-21
2021/11/05 00:10:45;;;;;;;;;;;;;;;;;;1014147;29;1579;-21
2021/11/05 00:11:15;;;;;;;;;;;;;;;;;;1020941;29;1169;-21
2021/11/05 00:11:46;;;;;;;;;;;;;;;;;;1013193;29;1111;-21
2021/11/05 00:12:18;;;;;;;;;;;;;;;;;;1016892;29;1137;-21
2021/11/05 00:12:50;;;;;;;;;;;;;;;;;;1017317;29;1093;-21
2021/11/05 00:13:20;;;;;;;;;;;;;;;;;;1013481;29;1372;-21
2021/11/05 00:13:50;;;;;;;;;;;;;;;;;;1016825;28;983;-22
2021/11/05 00:14:21;;;;;;;;;;;;;;;;;;1014214;29;1025;-21
2021/11/05 00:14:55;;;;;;;;;;;;;;;;;;1021149;29;1465;-22
2021/11/05 00:15:25;;;;;;;;;;;;;;;;;;1013490;29;1987;-21
2021/11/05 00:15:55;;;;;;;;;;;;;;;;;;1013497;29;967;-21
2021/11/05 00:16:28;;;;;;;;;;;;;;;;;;1012573;29;2551;-21
2021/11/05 00:16:58;;;;;;;;;;;;;;;;;;1009610;29;986;-21
2021/11/05 00:17:29;;;;;;;;;;;;;;;;;;1013176;29;1382;-20
2021/11/05 00:17:59;;;;;;;;;;;;;;;;;;1013463;29;1092;-21
2021/11/05 00:18:29;;;;;;;;;;;;;;;;;;1014036;29;867;-21
2021/11/05 00:19:00;;;;;;;;;;;;;;;;;;1013710;29;1174;-21
2021/11/05 00:19:31;;;;;;;;;;;;;;;;;;1013363;29;1067;-21
2021/11/05 00:20:02;;;;;;;;;;;;;;;;;;1013249;29;1196;-21
2021/11/05 00:20:33;;;;;;;;;;;;;;;;;;1013092;29;1694;-21
2021/11/05 00:21:06;;;;;;;;;;;;;;;;;;1013297;29;1043;-22
2021/11/05 00:21:37;;;;;;;;;;;;;;;;;;1008825;29;1495;-20
2021/11/05 00:22:07;;;;;;;;;;;;;;;;;;1009441;29;1329;-21
2021/11/05 00:22:41;;;;;;;;;;;;;;;;;;1013009;29;1291;-20
2021/11/05 00:23:13;;;;;;;;;;;;;;;;;;1013257;29;1065;-21
2021/11/05 00:23:43;;;;;;;;;;;;;;;;;;1014216;29;1175;-21
2021/11/05 00:24:14;;;;;;;;;;;;;;;;;;1020956;29;1301;-21
2021/11/05 00:24:44;;;;;;;;;;;;;;;;;;1021071;29;1319;-22
2021/11/05 00:25:15;;;;;;;;;;;;;;;;;;1021220;29;927;-21
2021/11/05 00:25:48;;;;;;;;;;;;;;;;;;1021393;29;1193;-21
2021/11/05 00:26:19;;;;;;;;;;;;;;;;;;1013922;29;1171;-21
2021/11/05 00:26:49;;;;;;;;;;;;;;;;;;1020807;29;1686;-22
2021/11/05 00:27:22;;;;;;;;;;;;;;;;;;1021169;29;1289;-21
2021/11/05 00:27:53;;;;;;;;;;;;;;;;;;1021533;29;909;-21
2021/11/05 00:28:23;;;;;;;;;;;;;;;;;;1020525;29;1013;-21
2021/11/05 00:28:56;;;;;;;;;;;;;;;;;;1014237;29;1142;-21
2021/11/05 00:29:27;;;;;;;;;;;;;;;;;;1021163;29;1089;-22
2021/11/05 00:29:57;;;;;;;;;;;;;;;;;;1021405;29;1005;-21
2021/11/05 00:30:31;;;;;;;;;;;;;;;;;;1021279;29;1060;-21
2021/11/05 00:31:04;;;;;;;;;;;;;;;;;;1020292;29;1121;-22
2021/11/05 00:31:35;;;;;;;;;;;;;;;;;;1014184;29;815;-22
2021/11/05 00:32:05;;;;;;;;;;;;;;;;;;1014289;29;947;-21
2021/11/05 00:32:37;;;;;;;;;;;;;;;;;;1013988;29;884;-22
2021/11/05 00:33:08;;;;;;;;;;;;;;;;;;1021205;29;1024;-21
2021/11/05 00:33:39;;;;;;;;;;;;;;;;;;1012762;29;1291;-24
2021/11/05 00:34:10;;;;;;;;;;;;;;;;;;1013490;29;1293;-22
2021/11/05 00:34:40;;;;;;;;;;;;;;;;;;1005315;29;1047;-21
2021/11/05 00:35:11;;;;;;;;;;;;;;;;;;1001951;29;1054;-21
2021/11/05 00:35:42;;;;;;;;;;;;;;;;;;1009543;29;1939;-22
2021/11/05 00:36:15;;;;;;;;;;;;;;;;;;1013334;29;1337;-21
2021/11/05 00:36:47;;;;;;;;;;;;;;;;;;1017288;29;1066;-21
2021/11/05 00:37:20;;;;;;;;;;;;;;;;;;1016945;29;1504;-21
2021/11/05 00:37:51;;;;;;;;;;;;;;;;;;1016487;29;1128;-21
2021/11/05 00:38:21;;;;;;;;;;;;;;;;;;1017061;29;1057;-21
2021/11/05 00:38:52;;;;;;;;;;;;;;;;;;1017083;29;1278;-21
2021/11/05 00:39:23;;;;;;;;;;;;;;;;;;1017103;29;1029;-21
2021/11/05 00:39:53;;;;;;;;;;;;;;;;;;1017223;29;961;-22
2021/11/05 00:40:25;;;;;;;;;;;;;;;;;;1009539;29;911;-21
2021/11/05 00:40:55;;;;;;;;;;;;;;;;;;1009513;29;1097;-21
2021/11/05 00:41:26;;;;;;;;;;;;;;;;;;1009185;29;1391;-22
2021/11/05 00:41:56;;;;;;;;;;;;;;;;;;1009499;29;1022;-21
2021/11/05 00:42:27;;;;;;;;;;;;;;;;;;1009647;29;1154;-21
2021/11/05 00:42:58;;;;;;;;;;;;;;;;;;1013136;29;1356;-22
2021/11/05 00:43:34;;;;;;;;;;;;;;;;;;1013323;29;1026;-22
2021/11/05 00:44:05;;;;;;;;;;;;;;;;;;1012169;29;952;-21
2021/11/05 00:44:35;;;;;;;;;;;;;;;;;;1010332;29;1004;-21
2021/11/05 00:45:08;;;;;;;;;;;;;;;;;;1021335;29;1098;-21
2021/11/05 00:45:39;;;;;;;;;;;;;;;;;;1024942;28;1022;-21
2021/11/05 00:46:09;;;;;;;;;;;;;;;;;;1025349;28;1069;-22
2021/11/05 00:46:45;;;;;;;;;;;;;;;;;;1023639;28;1456;-21
2021/11/05 00:47:16;;;;;;;;;;;;;;;;;;1024079;28;1228;-21
2021/11/05 00:47:46;;;;;;;;;;;;;;;;;;1021172;29;898;-21
2021/11/05 00:48:17;;;;;;;;;;;;;;;;;;1016877;29;1397;-21
2021/11/05 00:48:48;;;;;;;;;;;;;;;;;;1005278;29;1292;-21
2021/11/05 00:49:18;;;;;;;;;;;;;;;;;;1001812;29;1204;-21
2021/11/05 00:49:51;;;;;;;;;;;;;;;;;;1001537;29;1650;-21
2021/11/05 00:50:25;;;;;;;;;;;;;;;;;;1006042;29;1004;-21
2021/11/05 00:50:56;;;;;;;;;;;;;;;;;;1017068;29;1029;-22
2021/11/05 00:51:27;;;;;;;;;;;;;;;;;;1017333;29;981;-22
2021/11/05 00:52:00;;;;;;;;;;;;;;;;;;1017137;29;958;-21
2021/11/05 00:52:30;;;;;;;;;;;;;;;;;;1016954;29;950;-21
2021/11/05 00:53:01;;;;;;;;;;;;;;;;;;1014368;29;1088;-21
2021/11/05 00:53:33;;;;;;;;;;;;;;;;;;1016691;29;1486;-21
2021/11/05 00:54:03;;;;;;;;;;;;;;;;;;1013137;29;1043;-21
2021/11/05 00:54:33;;;;;;;;;;;;;;;;;;1013457;29;1073;-21
2021/11/05 00:55:04;;;;;;;;;;;;;;;;;;1013149;29;1079;-21
2021/11/05 00:55:35;;;;;;;;;;;;;;;;;;1013466;29;2039;-21
2021/11/05 00:56:05;;;;;;;;;;;;;;;;;;1016932;29;1450;-21
2021/11/05 00:56:37;;;;;;;;;;;;;;;;;;1020920;29;1758;-21
2021/11/05 00:57:08;;;;;;;;;;;;;;;;;;1009330;29;1277;-21
2021/11/05 00:57:39;;;;;;;;;;;;;;;;;;1009380;29;1035;-21
2021/11/05 00:58:09;;;;;;;;;;;;;;;;;;1009195;29;966;-20
2021/11/05 00:58:40;;;;;;;;;;;;;;;;;;1006129;29;915;-22
2021/11/05 00:59:10;;;;;;;;;;;;;;;;;;1016688;29;1498;-21
2021/11/05 00:59:40;;;;;;;;;;;;;;;;;;1013969;29;1227;-21
2021/11/05 01:00:13;;;;;;;;;;;;;;;;;;1014027;29;1378;-21
2021/11/05 01:00:45;;;;;;;;;;;;;;;;;;1021101;29;1257;-21
2021/11/05 01:01:16;;;;;;;;;;;;;;;;;;1013151;29;1198;-20
2021/11/05 01:01:46;;;;;;;;;;;;;;;;;;1005649;29;1218;-22
2021/11/05 01:02:19;;;;;;;;;;;;;;;;;;1004894;29;1035;-21
2021/11/05 01:02:50;;;;;;;;;;;;;;;;;;1005660;29;1086;-21
2021/11/05 01:03:21;;;;;;;;;;;;;;;;;;1013383;29;1460;-21
2021/11/05 01:03:51;;;;;;;;;;;;;;;;;;1017229;29;1094;-21
2021/11/05 01:04:23;;;;;;;;;;;;;;;;;;1016655;29;1514;-22
2021/11/05 01:04:53;;;;;;;;;;;;;;;;;;1013260;29;1103;-21
2021/11/05 01:05:25;;;;;;;;;;;;;;;;;;1013368;29;1284;-21
2021/11/05 01:05:55;;;;;;;;;;;;;;;;;;1020469;29;1179;-21
2021/11/05 01:06:29;;;;;;;;;;;;;;;;;;1013263;29;1091;-21
2021/11/05 01:06:59;;;;;;;;;;;;;;;;;;1012837;29;1326;-21
2021/11/05 01:07:30;;;;;;;;;;;;;;;;;;1012342;29;1298;-20
2021/11/05 01:08:01;;;;;;;;;;;;;;;;;;1009638;29;1071;-23
2021/11/05 01:08:31;;;;;;;;;;;;;;;;;;1012942;29;1260;-21
2021/11/05 01:09:03;;;;;;;;;;;;;;;;;;1013189;29;1169;-21
2021/11/05 01:09:33;;;;;;;;;;;;;;;;;;1013880;29;1418;-19
2021/11/05 01:10:10;;;;;;;;;;;;;;;;;;1013947;29;1008;-21
2021/11/05 01:10:40;;;;;;;;;;;;;;;;;;1013674;29;1111;-21
2021/11/05 01:11:11;;;;;;;;;;;;;;;;;;1013718;29;1337;-22
2021/11/05 01:11:42;;;;;;;;;;;;;;;;;;1013805;29;1147;-21
2021/11/05 01:12:12;;;;;;;;;;;;;;;;;;1014021;29;1001;-21
2021/11/05 01:12:42;;;;;;;;;;;;;;;;;;1013855;29;943;-21
2021/11/05 01:13:13;;;;;;;;;;;;;;;;;;1014008;29;943;-21
2021/11/05 01:13:43;;;;;;;;;;;;;;;;;;1013830;29;1508;-21
2021/11/05 01:14:17;;;;;;;;;;;;;;;;;;1013850;29;1238;-21
2021/11/05 01:14:47;;;;;;;;;;;;;;;;;;1014209;29;1372;-21
2021/11/05 01:15:18;;;;;;;;;;;;;;;;;;1013587;29;1015;-20
2021/11/05 01:15:48;;;;;;;;;;;;;;;;;;1014048;29;1897;-21
2021/11/05 01:16:19;;;;;;;;;;;;;;;;;;1013643;29;1493;-21
2021/11/05 01:16:50;;;;;;;;;;;;;;;;;;1016650;29;1207;-21
2021/11/05 01:17:20;;;;;;;;;;;;;;;;;;1017268;29;1071;-21
2021/11/05 01:17:53;;;;;;;;;;;;;;;;;;1016917;29;1096;-21
2021/11/05 01:18:30;;;;;;;;;;;;;;;;;;1016426;29;936;-22
2021/11/05 01:19:00;;;;;;;;;;;;;;;;;;1016972;29;1088;-21
2021/11/05 01:19:31;;;;;;;;;;;;;;;;;;1017251;29;1045;-21
2021/11/05 01:20:07;;;;;;;;;;;;;;;;;;1009102;29;1026;-21
2021/11/05 01:20:43;;;;;;;;;;;;;;;;;;1002290;29;1576;-22
2021/11/05 01:21:15;;;;;;;;;;;;;;;;;;1005363;29;1314;-21
2021/11/05 01:21:46;;;;;;;;;;;;;;;;;;1008942;29;946;-21
2021/11/05 01:22:16;;;;;;;;;;;;;;;;;;1014066;29;1250;-21
2021/11/05 01:22:50;;;;;;;;;;;;;;;;;;1017133;29;1122;-21
2021/11/05 01:23:21;;;;;;;;;;;;;;;;;;1013183;29;1685;-21
2021/11/05 01:23:52;;;;;;;;;;;;;;;;;;1013811;29;1153;-21
2021/11/05 01:24:22;;;;;;;;;;;;;;;;;;1014035;29;1221;-22
2021/11/05 01:24:58;;;;;;;;;;;;;;;;;;1021030;29;1082;-21
2021/11/05 01:25:29;;;;;;;;;;;;;;;;;;1021111;29;1116;-21
2021/11/05 01:25:59;;;;;;;;;;;;;;;;;;1020602;29;1481;-21
2021/11/05 01:26:30;;;;;;;;;;;;;;;;;;1021359;29;929;-22
2021/11/05 01:27:00;;;;;;;;;;;;;;;;;;1012576;29;1303;-21
2021/11/05 01:27:31;;;;;;;;;;;;;;;;;;1009263;29;986;-21
2021/11/05 01:28:02;;;;;;;;;;;;;;;;;;1009121;29;1086;-21
2021/11/05 01:28:33;;;;;;;;;;;;;;;;;;1016318;29;1415;-20
2021/11/05 01:29:06;;;;;;;;;;;;;;;;;;1017420;29;1255;-21
2021/11/05 01:29:37;;;;;;;;;;;;;;;;;;1012641;29;1316;-21
2021/11/05 01:30:08;;;;;;;;;;;;;;;;;;1008179;29;1262;-21
2021/11/05 01:30:44;;;;;;;;;;;;;;;;;;1008987;29;1299;-22
2021/11/05 01:31:17;;;;;;;;;;;;;;;;;;1008122;29;1437;-21
2021/11/05 01:31:48;;;;;;;;;;;;;;;;;;1010212;29;1166;-21
2021/11/05 01:32:18;;;;;;;;;;;;;;;;;;1011927;29;1318;-21
2021/11/05 01:32:51;;;;;;;;;;;;;;;;;;1009242;29;1241;-22
2021/11/05 01:33:22;;;;;;;;;;;;;;;;;;1009512;29;927;-21
2021/11/05 01:33:52;;;;;;;;;;;;;;;;;;1009818;29;1026;-21
2021/11/05 01:34:24;;;;;;;;;;;;;;;;;;1016954;29;1157;-21
2021/11/05 01:34:55;;;;;;;;;;;;;;;;;;1008241;29;1451;-20
2021/11/05 01:35:26;;;;;;;;;;;;;;;;;;1005141;29;1152;-21
2021/11/05 01:35:59;;;;;;;;;;;;;;;;;;1001094;29;1982;-21
2021/11/05 01:36:29;;;;;;;;;;;;;;;;;;998530;29;1135;-21
2021/11/05 01:37:00;;;;;;;;;;;;;;;;;;1005027;29;955;-21
2021/11/05 01:37:30;;;;;;;;;;;;;;;;;;1002501;29;1001;-21
2021/11/05 01:38:00;;;;;;;;;;;;;;;;;;1009554;29;1284;-21
2021/11/05 01:38:31;;;;;;;;;;;;;;;;;;1010032;29;1135;-21
2021/11/05 01:39:02;;;;;;;;;;;;;;;;;;1009951;29;951;-21
2021/11/05 01:39:33;;;;;;;;;;;;;;;;;;1016768;29;1039;-21
2021/11/05 01:40:05;;;;;;;;;;;;;;;;;;1009205;29;1003;-21
2021/11/05 01:40:37;;;;;;;;;;;;;;;;;;1009053;29;990;-21
2021/11/05 01:41:07;;;;;;;;;;;;;;;;;;1004945;29;1160;-21
2021/11/05 01:41:39;;;;;;;;;;;;;;;;;;1001964;29;1408;-21
2021/11/05 01:42:09;;;;;;;;;;;;;;;;;;1009417;29;1128;-21
2021/11/05 01:42:40;;;;;;;;;;;;;;;;;;1009244;29;1108;-22
2021/11/05 01:43:11;;;;;;;;;;;;;;;;;;1016715;29;1263;-21
2021/11/05 01:43:44;;;;;;;;;;;;;;;;;;1017191;29;1135;-21
2021/11/05 01:44:15;;;;;;;;;;;;;;;;;;1016923;29;1054;-21
2021/11/05 01:44:45;;;;;;;;;;;;;;;;;;1016103;29;1248;-21
2021/11/05 01:45:18;;;;;;;;;;;;;;;;;;1009926;29;1105;-21
2021/11/05 01:45:48;;;;;;;;;;;;;;;;;;1009716;29;1414;-21
2021/11/05 01:46:22;;;;;;;;;;;;;;;;;;1009912;29;1110;-21
2021/11/05 01:46:52;;;;;;;;;;;;;;;;;;1009856;29;1200;-21
2021/11/05 01:47:22;;;;;;;;;;;;;;;;;;1017273;29;1144;-22
2021/11/05 01:47:54;;;;;;;;;;;;;;;;;;1013172;29;1150;-21
2021/11/05 01:48:25;;;;;;;;;;;;;;;;;;1001292;29;1935;-22
2021/11/05 01:48:56;;;;;;;;;;;;;;;;;;997127;29;1080;-22
2021/11/05 01:49:27;;;;;;;;;;;;;;;;;;997984;29;1129;-21
2021/11/05 01:49:57;;;;;;;;;;;;;;;;;;1001038;29;1541;-21
2021/11/05 01:50:27;;;;;;;;;;;;;;;;;;1009412;29;1036;-21
2021/11/05 01:50:58;;;;;;;;;;;;;;;;;;1009339;29;990;-21
2021/11/05 01:51:28;;;;;;;;;;;;;;;;;;1009823;29;1095;-21
2021/11/05 01:52:00;;;;;;;;;;;;;;;;;;1016754;29;894;-21
2021/11/05 01:52:30;;;;;;;;;;;;;;;;;;1017332;29;994;-21
2021/11/05 01:53:00;;;;;;;;;;;;;;;;;;1017012;29;1098;-21
2021/11/05 01:53:32;;;;;;;;;;;;;;;;;;1009016;29;947;-21
2021/11/05 01:54:04;;;;;;;;;;;;;;;;;;1005089;29;1497;-21
2021/11/05 01:54:34;;;;;;;;;;;;;;;;;;1005241;29;1302;-21
2021/11/05 01:55:05;;;;;;;;;;;;;;;;;;1005541;29;1453;-21
2021/11/05 01:55:36;;;;;;;;;;;;;;;;;;1012941;29;2022;-21
2021/11/05 01:56:06;;;;;;;;;;;;;;;;;;1013192;29;911;-25
2021/11/05 01:56:43;;;;;;;;;;;;;;;;;;1009225;29;1309;-22
2021/11/05 01:57:15;;;;;;;;;;;;;;;;;;1009807;29;1182;-21
2021/11/05 01:57:46;;;;;;;;;;;;;;;;;;1009717;29;1510;-21
2021/11/05 01:58:20;;;;;;;;;;;;;;;;;;1009924;29;1104;-21
2021/11/05 01:58:51;;;;;;;;;;;;;;;;;;1009994;29;940;-21
2021/11/05 01:59:25;;;;;;;;;;;;;;;;;;1009576;29;1534;-21
2021/11/05 01:59:56;;;;;;;;;;;;;;;;;;1009824;29;1119;-21
2021/11/05 02:00:27;;;;;;;;;;;;;;;;;;1009716;29;1661;-20
2021/11/05 02:00:58;;;;;;;;;;;;;;;;;;1009979;29;1123;-21
2021/11/05 02:01:29;;;;;;;;;;;;;;;;;;1016756;29;1069;-22
2021/11/05 02:02:04;;;;;;;;;;;;;;;;;;1016966;29;1074;-21
2021/11/05 02:02:34;;;;;;;;;;;;;;;;;;1013169;29;968;-21
2021/11/05 02:03:05;;;;;;;;;;;;;;;;;;1012646;29;932;-21
2021/11/05 02:03:35;;;;;;;;;;;;;;;;;;1009225;29;983;-21
2021/11/05 02:04:06;;;;;;;;;;;;;;;;;;1009011;29;1211;-21
2021/11/05 02:04:36;;;;;;;;;;;;;;;;;;1009733;29;1422;-21
2021/11/05 02:05:06;;;;;;;;;;;;;;;;;;1009717;29;991;-22
2021/11/05 02:05:38;;;;;;;;;;;;;;;;;;1009662;29;1244;-21
2021/11/05 02:06:08;;;;;;;;;;;;;;;;;;1009614;29;1052;-21
2021/11/05 02:06:45;;;;;;;;;;;;;;;;;;1010072;29;1218;-21
2021/11/05 02:07:16;;;;;;;;;;;;;;;;;;1016460;29;1441;-21
2021/11/05 02:07:51;;;;;;;;;;;;;;;;;;1016821;29;1057;-21
2021/11/05 02:08:21;;;;;;;;;;;;;;;;;;1016837;29;1104;-21
2021/11/05 02:08:52;;;;;;;;;;;;;;;;;;1015057;29;792;-21
2021/11/05 02:09:25;;;;;;;;;;;;;;;;;;1009883;29;1108;-22
2021/11/05 02:09:56;;;;;;;;;;;;;;;;;;1009535;29;1383;-21
2021/11/05 02:10:27;;;;;;;;;;;;;;;;;;1005294;29;1327;-21
2021/11/05 02:11:02;;;;;;;;;;;;;;;;;;1005662;29;1035;-21
2021/11/05 02:11:36;;;;;;;;;;;;;;;;;;1001267;29;966;-21
2021/11/05 02:12:07;;;;;;;;;;;;;;;;;;1002542;29;951;-22
2021/11/05 02:12:40;;;;;;;;;;;;;;;;;;1005365;29;1136;-21
2021/11/05 02:13:13;;;;;;;;;;;;;;;;;;1009873;29;1114;-21
2021/11/05 02:13:44;;;;;;;;;;;;;;;;;;1013145;29;1104;-21
2021/11/05 02:14:18;;;;;;;;;;;;;;;;;;1013339;29;994;-21
2021/11/05 02:14:50;;;;;;;;;;;;;;;;;;1012760;29;931;-22
2021/11/05 02:15:24;;;;;;;;;;;;;;;;;;1009820;29;1431;-20
2021/11/05 02:15:56;;;;;;;;;;;;;;;;;;1009912;29;1911;-22
2021/11/05 02:16:27;;;;;;;;;;;;;;;;;;1009909;29;963;-22
2021/11/05 02:16:58;;;;;;;;;;;;;;;;;;1009835;29;941;-21
2021/11/05 02:17:29;;;;;;;;;;;;;;;;;;1009917;29;1433;-20
2021/11/05 02:17:59;;;;;;;;;;;;;;;;;;1009782;29;1216;-21
2021/11/05 02:18:30;;;;;;;;;;;;;;;;;;1009633;29;987;-21
2021/11/05 02:19:01;;;;;;;;;;;;;;;;;;1010044;29;876;-22
2021/11/05 02:19:32;;;;;;;;;;;;;;;;;;1009935;29;950;-21
2021/11/05 02:20:04;;;;;;;;;;;;;;;;;;1009993;29;936;-21
2021/11/05 02:20:35;;;;;;;;;;;;;;;;;;1008885;29;1016;-21
2021/11/05 02:21:10;;;;;;;;;;;;;;;;;;1009360;29;1169;-21
2021/11/05 02:21:41;;;;;;;;;;;;;;;;;;1005172;29;1718;-20
2021/11/05 02:22:12;;;;;;;;;;;;;;;;;;1005735;29;1159;-21
2021/11/05 02:22:42;;;;;;;;;;;;;;;;;;997821;29;1052;-22
2021/11/05 02:23:19;;;;;;;;;;;;;;;;;;997922;29;1354;-20
2021/11/05 02:23:50;;;;;;;;;;;;;;;;;;993787;29;1445;-21
2021/11/05 02:24:21;;;;;;;;;;;;;;;;;;994476;29;1293;-21
2021/11/05 02:24:57;;;;;;;;;;;;;;;;;;998744;29;1050;-21
2021/11/05 02:25:28;;;;;;;;;;;;;;;;;;1006088;29;1303;-20
2021/11/05 02:25:58;;;;;;;;;;;;;;;;;;1009129;29;1168;-21
2021/11/05 02:26:29;;;;;;;;;;;;;;;;;;1009161;29;998;-20
2021/11/05 02:26:59;;;;;;;;;;;;;;;;;;1009170;29;1026;-21
2021/11/05 02:27:32;;;;;;;;;;;;;;;;;;1009125;29;801;-21
2021/11/05 02:28:03;;;;;;;;;;;;;;;;;;1009979;29;908;-20
2021/11/05 02:28:37;;;;;;;;;;;;;;;;;;1009660;29;931;-21
2021/11/05 02:29:08;;;;;;;;;;;;;;;;;;1010081;29;967;-21
2021/11/05 02:29:38;;;;;;;;;;;;;;;;;;1008897;29;1667;-20
2021/11/05 02:30:12;;;;;;;;;;;;;;;;;;1008813;29;1001;-19
2021/11/05 02:30:42;;;;;;;;;;;;;;;;;;1012323;29;1241;-21
2021/11/05 02:31:19;;;;;;;;;;;;;;;;;;1012493;29;1145;-21
2021/11/05 02:31:49;;;;;;;;;;;;;;;;;;1009879;29;1014;-26
2021/11/05 02:32:20;;;;;;;;;;;;;;;;;;1016493;29;1569;-21
2021/11/05 02:32:50;;;;;;;;;;;;;;;;;;1016615;29;1316;-21
2021/11/05 02:33:21;;;;;;;;;;;;;;;;;;1016690;29;1088;-30
2021/11/05 02:33:52;;;;;;;;;;;;;;;;;;1012535;29;1503;-22
2021/11/05 02:34:23;;;;;;;;;;;;;;;;;;1012752;29;1122;-21
2021/11/05 02:34:53;;;;;;;;;;;;;;;;;;1013052;29;1029;-21
2021/11/05 02:35:24;;;;;;;;;;;;;;;;;;1008572;29;1574;-22
2021/11/05 02:35:54;;;;;;;;;;;;;;;;;;1005034;29;1915;-21
2021/11/05 02:36:26;;;;;;;;;;;;;;;;;;997605;29;1427;-22
2021/11/05 02:36:56;;;;;;;;;;;;;;;;;;997604;29;1088;-21
2021/11/05 02:37:27;;;;;;;;;;;;;;;;;;1005380;29;943;-22
2021/11/05 02:37:57;;;;;;;;;;;;;;;;;;1009629;29;1073;-21
2021/11/05 02:38:28;;;;;;;;;;;;;;;;;;1009895;29;926;-21
2021/11/05 02:38:59;;;;;;;;;;;;;;;;;;1009549;29;1512;-22
2021/11/05 02:39:33;;;;;;;;;;;;;;;;;;1009273;29;1159;-21
2021/11/05 02:40:05;;;;;;;;;;;;;;;;;;1016915;29;1260;-21
2021/11/05 02:40:36;;;;;;;;;;;;;;;;;;1016773;29;1185;-22
2021/11/05 02:41:07;;;;;;;;;;;;;;;;;;1012784;29;1033;-21
2021/11/05 02:41:40;;;;;;;;;;;;;;;;;;1008320;29;1116;-21
2021/11/05 02:42:16;;;;;;;;;;;;;;;;;;1001275;29;1191;-21
2021/11/05 02:42:47;;;;;;;;;;;;;;;;;;1008742;29;1071;-22
2021/11/05 02:43:18;;;;;;;;;;;;;;;;;;1009784;29;1527;-21
2021/11/05 02:43:54;;;;;;;;;;;;;;;;;;1009053;29;1019;-20
2021/11/05 02:44:25;;;;;;;;;;;;;;;;;;1008957;29;1589;-20
2021/11/05 02:44:55;;;;;;;;;;;;;;;;;;1008896;29;1097;-21
2021/11/05 02:45:26;;;;;;;;;;;;;;;;;;1009341;29;1214;-21
2021/11/05 02:46:00;;;;;;;;;;;;;;;;;;1005205;29;1028;-21
2021/11/05 02:46:30;;;;;;;;;;;;;;;;;;1004935;29;1096;-20
2021/11/05 02:47:17;;;;;;;;;;;;;;;;;;1005207;29;1068;-21
2021/11/05 02:47:50;;;;;;;;;;;;;;;;;;1004603;29;1526;-21
2021/11/05 02:48:21;;;;;;;;;;;;;;;;;;1008055;29;1309;-21
2021/11/05 02:48:51;;;;;;;;;;;;;;;;;;1009801;29;947;-20
2021/11/05 02:49:25;;;;;;;;;;;;;;;;;;1016328;29;1596;-22
2021/11/05 02:49:59;;;;;;;;;;;;;;;;;;1016980;29;1037;-21
2021/11/05 02:50:29;;;;;;;;;;;;;;;;;;1008519;29;1610;-21
2021/11/05 02:51:00;;;;;;;;;;;;;;;;;;1008072;29;1214;-21
2021/11/05 02:51:31;;;;;;;;;;;;;;;;;;1005207;29;1136;-21
2021/11/05 02:52:04;;;;;;;;;;;;;;;;;;1005190;29;1101;-22
2021/11/05 02:52:35;;;;;;;;;;;;;;;;;;1005220;29;1093;-22
2021/11/05 02:53:05;;;;;;;;;;;;;;;;;;1005393;29;1076;-22
2021/11/05 02:53:36;;;;;;;;;;;;;;;;;;1005003;29;919;-21
2021/11/05 02:54:07;;;;;;;;;;;;;;;;;;1012794;29;896;-22
2021/11/05 02:54:37;;;;;;;;;;;;;;;;;;1016798;29;1305;-21
2021/11/05 02:55:10;;;;;;;;;;;;;;;;;;1016122;29;1060;-21
2021/11/05 02:55:40;;;;;;;;;;;;;;;;;;1008876;29;1989;-20
2021/11/05 02:56:16;;;;;;;;;;;;;;;;;;1005012;29;1069;-21
2021/11/05 02:56:47;;;;;;;;;;;;;;;;;;1005184;29;1004;-21
2021/11/05 02:57:17;;;;;;;;;;;;;;;;;;1005818;29;1595;-21
2021/11/05 02:57:48;;;;;;;;;;;;;;;;;;1009862;29;1115;-21
2021/11/05 02:58:20;;;;;;;;;;;;;;;;;;1016541;29;1300;-20
2021/11/05 02:58:51;;;;;;;;;;;;;;;;;;1008442;29;1270;-21
2021/11/05 02:59:21;;;;;;;;;;;;;;;;;;1009187;29;1163;-21
2021/11/05 02:59:52;;;;;;;;;;;;;;;;;;1008531;29;1526;-21
2021/11/05 03:00:22;;;;;;;;;;;;;;;;;;1005283;29;1102;-21
2021/11/05 03:00:59;;;;;;;;;;;;;;;;;;1013007;29;1115;-21
2021/11/05 03:01:30;;;;;;;;;;;;;;;;;;1012754;29;1278;-21
2021/11/05 03:02:00;;;;;;;;;;;;;;;;;;1013029;29;1183;-21
2021/11/05 03:02:31;;;;;;;;;;;;;;;;;;1012504;29;1041;-21
2021/11/05 03:03:01;;;;;;;;;;;;;;;;;;1005199;29;1356;-22
2021/11/05 03:03:32;;;;;;;;;;;;;;;;;;1005070;29;1259;-21
2021/11/05 03:04:06;;;;;;;;;;;;;;;;;;1005181;29;926;-21
2021/11/05 03:04:37;;;;;;;;;;;;;;;;;;1009888;29;924;-21
2021/11/05 03:05:11;;;;;;;;;;;;;;;;;;1009593;29;1597;-21
2021/11/05 03:05:41;;;;;;;;;;;;;;;;;;1009495;29;1125;-22
2021/11/05 03:06:11;;;;;;;;;;;;;;;;;;1009676;29;979;-22
2021/11/05 03:06:42;;;;;;;;;;;;;;;;;;1016409;29;1372;-21
2021/11/05 03:07:13;;;;;;;;;;;;;;;;;;1017699;29;1246;-21
2021/11/05 03:07:43;;;;;;;;;;;;;;;;;;1020945;29;1351;-21
2021/11/05 03:08:14;;;;;;;;;;;;;;;;;;1020639;29;1509;-22
2021/11/05 03:08:44;;;;;;;;;;;;;;;;;;1016666;28;1159;-22
2021/11/05 03:09:16;;;;;;;;;;;;;;;;;;1020784;29;1194;-21
2021/11/05 03:09:47;;;;;;;;;;;;;;;;;;1016693;29;1065;-21
2021/11/05 03:10:19;;;;;;;;;;;;;;;;;;1016649;29;999;-21
2021/11/05 03:10:49;;;;;;;;;;;;;;;;;;1012448;29;1328;-21
2021/11/05 03:11:20;;;;;;;;;;;;;;;;;;1012977;29;1162;-22
2021/11/05 03:11:50;;;;;;;;;;;;;;;;;;1013571;29;1438;-21
2021/11/05 03:12:21;;;;;;;;;;;;;;;;;;1013418;29;1339;-21
2021/11/05 03:12:51;;;;;;;;;;;;;;;;;;1013527;29;1014;-21
2021/11/05 03:13:22;;;;;;;;;;;;;;;;;;1013139;29;1309;-21
2021/11/05 03:13:52;;;;;;;;;;;;;;;;;;1013391;29;1215;-21
2021/11/05 03:14:23;;;;;;;;;;;;;;;;;;1013720;29;978;-22
2021/11/05 03:14:59;;;;;;;;;;;;;;;;;;1013418;29;1122;-21
2021/11/05 03:15:30;;;;;;;;;;;;;;;;;;1013528;29;1032;-22
2021/11/05 03:16:01;;;;;;;;;;;;;;;;;;1013018;29;1985;-21
2021/11/05 03:16:31;;;;;;;;;;;;;;;;;;1020518;29;1148;-21
2021/11/05 03:17:02;;;;;;;;;;;;;;;;;;1020602;29;1000;-21
2021/11/05 03:17:33;;;;;;;;;;;;;;;;;;1020568;29;1133;-21
2021/11/05 03:18:07;;;;;;;;;;;;;;;;;;1019685;29;1131;-22
2021/11/05 03:18:42;;;;;;;;;;;;;;;;;;1016166;29;1451;-21
2021/11/05 03:19:13;;;;;;;;;;;;;;;;;;1016329;29;1162;-21
2021/11/05 03:19:44;;;;;;;;;;;;;;;;;;1012976;29;1209;-21
2021/11/05 03:20:14;;;;;;;;;;;;;;;;;;1012087;29;1431;-22
2021/11/05 03:20:46;;;;;;;;;;;;;;;;;;1012859;29;1202;-21
2021/11/05 03:21:16;;;;;;;;;;;;;;;;;;1012647;29;1494;-21
2021/11/05 03:21:47;;;;;;;;;;;;;;;;;;1020394;29;1127;-20
2021/11/05 03:22:17;;;;;;;;;;;;;;;;;;1020728;29;946;-21
2021/11/05 03:22:51;;;;;;;;;;;;;;;;;;1020591;29;1223;-21
2021/11/05 03:23:21;;;;;;;;;;;;;;;;;;1020138;29;1014;-21
2021/11/05 03:23:52;;;;;;;;;;;;;;;;;;1020023;29;1459;-21
2021/11/05 03:24:23;;;;;;;;;;;;;;;;;;1020447;29;1045;-22
2021/11/05 03:24:54;;;;;;;;;;;;;;;;;;1020714;29;1186;-21
2021/11/05 03:25:24;;;;;;;;;;;;;;;;;;1019893;28;1308;-20
2021/11/05 03:25:57;;;;;;;;;;;;;;;;;;1013657;29;1148;-21
2021/11/05 03:26:27;;;;;;;;;;;;;;;;;;1013765;29;1027;-21
2021/11/05 03:26:58;;;;;;;;;;;;;;;;;;1013505;29;1113;-21
2021/11/05 03:27:28;;;;;;;;;;;;;;;;;;1014402;29;1019;-21
2021/11/05 03:27:59;;;;;;;;;;;;;;;;;;1014324;29;833;-21
2021/11/05 03:28:29;;;;;;;;;;;;;;;;;;1021505;29;1056;-20
2021/11/05 03:29:00;;;;;;;;;;;;;;;;;;1021746;29;937;-21
2021/11/05 03:29:30;;;;;;;;;;;;;;;;;;1020531;29;1651;-21
2021/11/05 03:30:02;;;;;;;;;;;;;;;;;;1021353;29;1241;-21
2021/11/05 03:30:33;;;;;;;;;;;;;;;;;;1021210;29;1219;-21
2021/11/05 03:31:04;;;;;;;;;;;;;;;;;;1025286;28;1186;-21
2021/11/05 03:31:34;;;;;;;;;;;;;;;;;;1025588;28;879;-21
2021/11/05 03:32:09;;;;;;;;;;;;;;;;;;1020946;29;1365;-21
2021/11/05 03:32:40;;;;;;;;;;;;;;;;;;1012995;29;1181;-20
2021/11/05 03:33:11;;;;;;;;;;;;;;;;;;1013181;29;1585;-22
2021/11/05 03:33:41;;;;;;;;;;;;;;;;;;1014226;29;1219;-21
2021/11/05 03:34:12;;;;;;;;;;;;;;;;;;1017804;29;1216;-21
2021/11/05 03:34:42;;;;;;;;;;;;;;;;;;1021230;29;1617;-22
2021/11/05 03:35:14;;;;;;;;;;;;;;;;;;1014091;29;1083;-21
2021/11/05 03:35:44;;;;;;;;;;;;;;;;;;1013733;29;1993;-21
2021/11/05 03:36:14;;;;;;;;;;;;;;;;;;1013821;29;1281;-21
2021/11/05 03:36:48;;;;;;;;;;;;;;;;;;1014039;29;1513;-21
2021/11/05 03:37:18;;;;;;;;;;;;;;;;;;1020896;29;1505;-20
2021/11/05 03:37:51;;;;;;;;;;;;;;;;;;1021427;29;1138;-21
2021/11/05 03:38:22;;;;;;;;;;;;;;;;;;1021687;29;1087;-21
2021/11/05 03:38:53;;;;;;;;;;;;;;;;;;1012494;29;1394;-20